Terminal Aerodrome Forecast
Issued by NWS Nashville, TN

Home | Current Version | Previous Version | Text Only | Print | Product List | Glossary On
Versions: 1 2 3 4 5 6 7 8 9 10 11 12 13 14 15 16 17
003
FTUS44 KOHX 142328
TAFCSV
TAF
KCSV 142328Z 1500/1524 16010G17KT P6SM OVC035
     FM150500 17007KT 3SM -FZRASNPL BR OVC010
     FM151100 17007KT 2SM -RA BR OVC007=

USA.gov is the U.S. government's official web portal to all federal, state and local government web resources and services.